createdAt,value
2023-06-10T00:05:22.396Z,64
2023-06-10T00:15:22.587Z,65
2023-06-10T00:25:22.826Z,64
2023-06-10T00:35:22.976Z,65
2023-06-10T00:45:23.183Z,65
2023-06-10T01:05:23.580Z,66
2023-06-10T01:15:23.771Z,67
2023-06-10T01:25:24.018Z,67
2023-06-10T01:35:24.191Z,67
2023-06-10T01:45:24.376Z,68
2023-06-10T01:55:24.547Z,67
2023-06-10T02:05:24.747Z,67
2023-06-10T02:15:24.997Z,67
2023-06-10T02:25:25.136Z,67
2023-06-10T02:35:25.353Z,67
2023-06-10T02:45:25.549Z,68
2023-06-10T02:55:25.744Z,67
2023-06-10T03:05:25.933Z,68
2023-06-10T03:15:26.122Z,68
2023-06-10T03:25:26.314Z,69
2023-06-10T03:35:26.569Z,69
2023-06-10T03:45:26.705Z,69
2023-06-10T03:55:26.915Z,69
2023-06-10T04:05:27.111Z,70
2023-06-10T04:15:27.306Z,70
2023-06-10T04:25:27.499Z,69
2023-06-10T04:35:27.692Z,69
2023-06-10T04:45:27.924Z,69
2023-06-10T04:55:28.079Z,69
2023-06-10T05:05:28.293Z,69
2023-06-10T05:15:28.518Z,69
2023-06-10T05:25:28.669Z,68
2023-06-10T05:45:29.157Z,68
2023-06-10T05:55:29.263Z,68
2023-06-10T06:05:29.487Z,67
2023-06-10T06:15:29.699Z,66
2023-06-10T06:25:29.859Z,66
2023-06-10T06:35:30.053Z,65
2023-06-10T06:55:30.453Z,64
2023-06-10T07:05:30.645Z,64
2023-06-10T07:25:31.023Z,63
2023-06-10T07:35:31.213Z,62
2023-06-10T07:45:31.420Z,62
2023-06-10T07:55:31.613Z,61
2023-06-10T08:05:31.826Z,60
2023-06-10T08:15:32.063Z,60
2023-06-10T08:25:32.238Z,59
2023-06-10T08:35:32.402Z,59
2023-06-10T08:45:32.596Z,58
2023-06-10T08:55:33.036Z,58
2023-06-10T09:05:32.990Z,57
2023-06-10T09:15:33.181Z,56
2023-06-10T09:25:33.360Z,56
2023-06-10T09:35:33.562Z,55
2023-06-10T09:45:33.929Z,55
2023-06-10T09:55:34.008Z,53
2023-06-10T10:05:34.267Z,53
2023-06-10T10:15:34.347Z,54
2023-06-10T10:25:34.588Z,54
2023-06-10T10:35:34.728Z,52
2023-06-10T10:45:34.946Z,53
2023-06-10T10:55:35.125Z,53
2023-06-10T11:05:35.365Z,52
2023-06-10T11:25:35.690Z,53
2023-06-10T11:35:35.922Z,50
2023-06-10T11:45:36.096Z,51
2023-06-10T11:55:36.280Z,49
2023-06-10T12:05:36.551Z,48
2023-06-10T12:15:36.671Z,50
2023-06-10T12:35:37.063Z,48
2023-06-10T12:55:37.475Z,47
2023-06-10T13:05:37.643Z,47
2023-06-10T13:15:40.532Z,47
2023-06-10T13:55:38.620Z,48
2023-06-10T14:05:38.809Z,47
2023-06-10T14:15:39.032Z,47
2023-06-10T14:35:39.397Z,47
2023-06-10T14:45:39.616Z,47
2023-06-10T14:55:39.807Z,47
2023-06-10T15:05:39.982Z,47
2023-06-10T15:35:40.595Z,48
2023-06-10T15:45:40.788Z,47
2023-06-10T15:55:40.957Z,48
2023-06-10T16:15:41.338Z,48
2023-06-10T16:35:41.738Z,48
2023-06-10T16:45:41.963Z,49
2023-06-10T17:15:42.534Z,50
2023-06-10T17:25:42.706Z,50
2023-06-10T17:45:43.118Z,50
2023-06-10T18:05:43.493Z,51
2023-06-10T18:15:43.682Z,51
2023-06-10T18:25:43.873Z,52
2023-06-10T18:35:44.061Z,52
2023-06-10T18:45:44.341Z,52
2023-06-10T18:55:44.464Z,53
2023-06-10T19:05:44.663Z,54
2023-06-10T19:15:44.840Z,54
2023-06-10T21:05:46.974Z,59
2023-06-10T21:25:47.390Z,59
2023-06-10T21:45:47.807Z,60
2023-06-10T22:15:48.385Z,62
2023-06-10T22:25:48.553Z,62
2023-06-10T22:35:48.739Z,62
2023-06-10T22:45:48.943Z,63
2023-06-10T22:55:49.148Z,63
2023-06-10T23:05:49.345Z,63
2023-06-10T23:15:49.539Z,63
2023-06-10T23:25:49.722Z,63
